Time;durP1;ratioP1;P1;durP2;ratioP2;P2;SDS_P1;SDS_P2;PMS_P1;PMS_P2;Temp;Humidity;BMP_temperature;BMP_pressure;BME280_temperature;BME280_humidity;BME280_pressure;Samples;Min_cycle;Max_cycle;Signal;HPM_P1;HPM_P2
2021/09/27 00:01:18;;;;;;;9.65;7.47;;;17.60;99.90;;;;;;5112328;28;20363;-38
2021/09/27 00:03:43;;;;;;;;;;;17.60;99.90;;;;;;5113308;28;20039;-36
2021/09/27 00:06:11;;;;;;;9.10;8.15;;;17.60;99.90;;;;;;5113072;28;19961;-38
2021/09/27 00:08:40;;;;;;;8.93;8.02;;;17.50;99.90;;;;;;5111468;28;20044;-37
2021/09/27 00:11:15;;;;;;;8.48;7.75;;;17.50;99.90;;;;;;5112797;28;20035;-38
2021/09/27 00:13:43;;;;;;;9.13;8.05;;;17.50;99.90;;;;;;5111830;28;20035;-34
2021/09/27 00:16:11;;;;;;;9.13;8.23;;;17.50;99.90;;;;;;5112466;28;20042;-37
2021/09/27 00:18:37;;;;;;;8.75;7.82;;;17.60;99.90;;;;;;5112153;28;20023;-39
2021/09/27 00:21:06;;;;;;;9.13;7.80;;;17.60;99.90;;;;;;5111583;28;20043;-37
2021/09/27 00:23:34;;;;;;;8.93;8.10;;;17.50;99.90;;;;;;5112017;28;20376;-33
2021/09/27 00:26:05;;;;;;;8.77;7.93;;;17.60;99.90;;;;;;5112174;28;20030;-39
2021/09/27 00:28:30;;;;;;;9.20;8.15;;;17.50;99.90;;;;;;5111238;28;20497;-39
2021/09/27 00:30:59;;;;;;;7.85;7.05;;;17.50;99.90;;;;;;5112423;28;20028;-39
2021/09/27 00:33:28;;;;;;;10.68;8.18;;;17.50;99.90;;;;;;5071527;28;20044;-39
2021/09/27 00:35:54;;;;;;;8.45;7.55;;;17.50;99.90;;;;;;5098831;28;20118;-37
2021/09/27 00:38:21;;;;;;;8.88;8.02;;;17.50;99.90;;;;;;5112633;28;20022;-39
2021/09/27 00:41:03;;;;;;;8.95;7.80;;;17.50;99.90;;;;;;5111800;28;20027;-36
2021/09/27 00:43:30;;;;;;;8.93;8.00;;;17.50;99.90;;;;;;5111394;28;20026;-37
2021/09/27 00:46:00;;;;;;;9.70;8.35;;;17.40;99.90;;;;;;5110921;28;20038;-37
2021/09/27 00:48:28;;;;;;;9.35;7.72;;;17.40;99.90;;;;;;5111871;28;20057;-39
2021/09/27 00:50:58;;;;;;;8.82;7.80;;;17.40;99.90;;;;;;5111738;28;20022;-38
2021/09/27 00:53:35;;;;;;;10.60;8.63;;;17.40;99.90;;;;;;5111605;28;20023;-39
2021/09/27 00:56:02;;;;;;;9.57;8.45;;;17.30;99.90;;;;;;5111788;28;20036;-39
2021/09/27 00:58:29;;;;;;;11.65;8.77;;;17.30;99.90;;;;;;5111548;28;20077;-38
2021/09/27 01:00:56;;;;;;;11.00;8.63;;;17.30;99.90;;;;;;5108399;28;20421;-37
2021/09/27 01:03:22;;;;;;;8.82;7.93;;;17.20;99.90;;;;;;5110696;28;20356;-36
2021/09/27 01:06:01;;;;;;;9.63;8.38;;;17.20;99.90;;;;;;5112088;28;20587;-35
2021/09/27 01:08:37;;;;;;;8.30;7.60;;;17.20;99.90;;;;;;5091412;28;20016;-39
2021/09/27 01:11:32;;;;;;;9.13;8.18;;;17.20;99.90;;;;;;5110946;28;20067;-38
2021/09/27 01:14:25;;;;;;;9.43;8.20;;;17.10;99.90;;;;;;5111724;28;20494;-39
2021/09/27 01:17:02;;;;;;;8.70;7.53;;;17.20;99.90;;;;;;5111408;28;20034;-37
2021/09/27 01:20:05;;;;;;;10.40;8.05;;;17.20;99.90;;;;;;5110756;28;20096;-37
2021/09/27 01:22:54;;;;;;;9.50;8.60;;;17.20;99.90;;;;;;5110987;28;20095;-38
2021/09/27 01:26:07;;;;;;;8.48;7.68;;;17.20;99.90;;;;;;5069845;28;20021;-36
2021/09/27 01:29:03;;;;;;;8.90;7.90;;;17.20;99.90;;;;;;5103871;28;20039;-36
2021/09/27 01:31:59;;;;;;;8.85;7.80;;;17.10;99.90;;;;;;5110472;28;20039;-37
2021/09/27 01:34:44;;;;;;;9.13;8.23;;;17.10;99.90;;;;;;5093273;28;20023;-37
2021/09/27 01:37:32;;;;;;;8.80;7.72;;;17.10;99.90;;;;;;5111114;28;20063;-39
2021/09/27 01:40:24;;;;;;;8.90;8.10;;;17.10;99.90;;;;;;5058821;28;20505;-39
2021/09/27 01:43:31;;;;;;;9.15;8.25;;;17.10;99.90;;;;;;5111009;28;20478;-37
2021/09/27 01:46:08;;;;;;;9.63;8.60;;;17.00;99.90;;;;;;5029876;28;20582;-37
2021/09/27 01:48:50;;;;;;;9.40;8.45;;;17.00;99.90;;;;;;5103192;28;20066;-40
2021/09/27 01:51:42;;;;;;;9.43;8.10;;;17.00;99.90;;;;;;5070600;28;20048;-33
2021/09/27 01:54:19;;;;;;;10.27;8.20;;;17.00;99.90;;;;;;5108924;28;20026;-38
2021/09/27 01:56:58;;;;;;;8.85;7.95;;;16.90;99.90;;;;;;5110953;28;20093;-38
2021/09/27 01:59:56;;;;;;;10.07;8.27;;;17.00;99.90;;;;;;5107155;28;20059;-39
2021/09/27 02:02:42;;;;;;;8.38;7.60;;;16.90;99.90;;;;;;5109421;28;20149;-39
2021/09/27 02:05:18;;;;;;;10.60;8.48;;;16.90;99.90;;;;;;5093439;28;20100;-38
2021/09/27 02:08:05;;;;;;;8.88;7.97;;;16.90;99.90;;;;;;5109732;28;20032;-36
2021/09/27 02:10:41;;;;;;;9.85;8.93;;;16.90;99.90;;;;;;5090636;28;20023;-40
2021/09/27 02:13:38;;;;;;;9.25;8.25;;;16.90;99.90;;;;;;5110134;28;20028;-38
2021/09/27 02:16:20;;;;;;;9.40;8.10;;;16.90;99.90;;;;;;5096668;28;20044;-40
2021/09/27 02:19:02;;;;;;;10.55;8.30;;;16.90;99.90;;;;;;5110705;28;20058;-37
2021/09/27 02:21:32;;;;;;;;;;;16.90;99.90;;;;;;5109814;28;20035;-38
2021/09/27 02:24:06;;;;;;;10.40;8.48;;;16.80;99.90;;;;;;5110199;28;19908;-36
2021/09/27 02:26:32;;;;;;;10.02;8.85;;;16.80;99.90;;;;;;5110265;28;20102;-38
2021/09/27 02:29:01;;;;;;;9.55;8.65;;;16.80;99.90;;;;;;5109943;28;20131;-35
2021/09/27 02:32:10;;;;;;;9.82;8.82;;;16.80;99.90;;;;;;5109518;28;20016;-36
2021/09/27 02:34:43;;;;;;;9.85;8.07;;;16.70;99.90;;;;;;5109168;28;20031;-40
2021/09/27 02:37:27;;;;;;;;;;;16.70;99.90;;;;;;5111159;28;20027;-37
2021/09/27 02:40:08;;;;;;;8.57;7.70;;;16.70;99.90;;;;;;5110060;28;19910;-37
2021/09/27 02:42:50;;;;;;;9.23;8.30;;;16.70;99.90;;;;;;5109380;28;20028;-36
2021/09/27 02:45:16;;;;;;;7.63;6.73;;;16.60;99.90;;;;;;5109569;28;20024;-37
2021/09/27 02:47:58;;;;;;;8.93;7.38;;;16.60;99.90;;;;;;5110125;28;20780;-38
2021/09/27 02:50:30;;;;;;;9.15;8.23;;;16.60;99.90;;;;;;5109146;28;20344;-36
2021/09/27 02:53:02;;;;;;;9.35;7.70;;;16.60;99.90;;;;;;5110251;28;20028;-36
2021/09/27 02:55:59;;;;;;;9.85;7.93;;;16.60;99.90;;;;;;5107525;28;20122;-38
2021/09/27 02:58:47;;;;;;;9.35;7.60;;;16.50;99.90;;;;;;5068893;28;20488;-37
2021/09/27 03:01:30;;;;;;;9.73;8.48;;;16.50;99.90;;;;;;5110256;28;20024;-39
2021/09/27 03:04:14;;;;;;;9.57;8.18;;;16.50;99.90;;;;;;5113691;28;20031;-39
2021/09/27 03:07:15;;;;;;;11.25;9.13;;;16.50;99.90;;;;;;5112154;28;20019;-36
2021/09/27 03:10:18;;;;;;;10.25;8.88;;;16.50;99.90;;;;;;5113200;28;20085;-38
2021/09/27 03:13:03;;;;;;;10.05;7.55;;;16.50;99.90;;;;;;5074703;28;20035;-39
2021/09/27 03:15:40;;;;;;;10.27;8.65;;;16.50;99.90;;;;;;5112430;28;20082;-37
2021/09/27 03:18:28;;;;;;;11.90;8.68;;;16.50;99.90;;;;;;5113593;28;20059;-37
2021/09/27 03:21:23;;;;;;;9.30;7.43;;;16.50;99.90;;;;;;5113477;28;20112;-39
2021/09/27 03:24:12;;;;;;;9.10;8.20;;;16.50;99.90;;;;;;5113924;28;20027;-40
2021/09/27 03:27:15;;;;;;;9.02;8.10;;;16.40;99.90;;;;;;5112973;28;20130;-39
2021/09/27 03:30:10;;;;;;;9.30;8.13;;;16.50;99.90;;;;;;5072320;28;20029;-38
2021/09/27 03:32:44;;;;;;;8.57;7.78;;;16.40;99.90;;;;;;5102936;28;20051;-39
2021/09/27 03:35:44;;;;;;;10.90;8.93;;;16.40;99.90;;;;;;5112723;28;20428;-37
2021/09/27 03:38:28;;;;;;;10.68;8.32;;;16.40;99.90;;;;;;5111774;28;20054;-38
2021/09/27 03:41:16;;;;;;;9.90;8.90;;;16.40;99.90;;;;;;5113529;28;20012;-38
2021/09/27 03:44:01;;;;;;;9.88;8.88;;;16.30;99.90;;;;;;5095045;28;20044;-38
2021/09/27 03:46:46;;;;;;;10.40;9.30;;;16.40;99.90;;;;;;5112014;28;20149;-36
2021/09/27 03:49:31;;;;;;;10.55;9.45;;;16.30;99.90;;;;;;5113391;28;20244;-39
2021/09/27 03:52:05;;;;;;;11.27;9.40;;;16.40;99.90;;;;;;5112483;28;20050;-38
2021/09/27 03:54:39;;;;;;;10.73;9.63;;;16.30;99.90;;;;;;5112217;28;20019;-38
2021/09/27 03:57:15;;;;;;;10.75;9.43;;;16.30;99.90;;;;;;5113160;28;20024;-36
2021/09/27 04:00:04;;;;;;;10.52;9.43;;;16.30;99.90;;;;;;5112541;28;20375;-38
2021/09/27 04:02:47;;;;;;;10.82;9.70;;;16.30;99.90;;;;;;5112112;28;20024;-39
2021/09/27 04:05:23;;;;;;;10.32;9.20;;;16.30;99.90;;;;;;5113345;28;20031;-36
2021/09/27 04:08:19;;;;;;;10.25;8.90;;;16.40;99.90;;;;;;5113096;28;20023;-38
2021/09/27 04:11:22;;;;;;;11.43;9.52;;;16.40;99.90;;;;;;5091058;28;20405;-39
2021/09/27 04:14:12;;;;;;;12.23;9.13;;;16.50;99.90;;;;;;5111752;28;20032;-38
2021/09/27 04:16:58;;;;;;;10.55;9.45;;;16.60;99.90;;;;;;5111930;28;20038;-37
2021/09/27 04:19:47;;;;;;;9.05;8.15;;;16.70;99.90;;;;;;5108367;28;20494;-37
2021/09/27 04:22:45;;;;;;;10.38;9.15;;;16.70;99.90;;;;;;5099193;28;20039;-35
2021/09/27 04:25:30;;;;;;;10.63;8.93;;;16.80;99.90;;;;;;5095864;28;20030;-38
2021/09/27 04:28:15;;;;;;;9.98;9.05;;;16.80;99.90;;;;;;5112229;28;20465;-37
2021/09/27 04:30:44;;;;;;;11.48;9.05;;;16.90;99.90;;;;;;5112626;28;20019;-39
2021/09/27 04:33:28;;;;;;;11.55;9.70;;;16.90;99.90;;;;;;5112452;28;20016;-40
2021/09/27 04:36:11;;;;;;;11.48;9.85;;;17.00;99.90;;;;;;5111964;28;20039;-39
2021/09/27 04:38:38;;;;;;;11.65;9.40;;;17.00;99.90;;;;;;5111440;28;20471;-36
2021/09/27 04:41:21;;;;;;;12.50;10.63;;;17.00;99.90;;;;;;5112261;28;20368;-36
2021/09/27 04:44:12;;;;;;;8.88;7.97;;;17.00;99.90;;;;;;5112550;28;20370;-38
2021/09/27 04:46:56;;;;;;;10.63;9.52;;;17.10;99.90;;;;;;5111755;28;20024;-39
2021/09/27 04:49:50;;;;;;;9.88;8.77;;;17.00;99.90;;;;;;5111501;28;20329;-36
2021/09/27 04:52:30;;;;;;;11.98;9.07;;;17.00;99.90;;;;;;5059341;28;20383;-37
2021/09/27 04:55:17;;;;;;;8.70;7.80;;;17.10;99.90;;;;;;5106757;28;20383;-38
2021/09/27 04:58:20;;;;;;;8.85;7.95;;;17.10;99.90;;;;;;5111923;28;20028;-38
2021/09/27 05:01:02;;;;;;;;;;;17.10;99.90;;;;;;5108453;28;20402;-37
2021/09/27 05:03:58;;;;;;;9.20;8.30;;;17.10;99.90;;;;;;5111594;28;19972;-40
2021/09/27 05:07:02;;;;;;;11.45;8.50;;;17.10;99.90;;;;;;5092605;28;20375;-38
2021/09/27 05:09:33;;;;;;;10.15;9.10;;;17.10;99.90;;;;;;5053929;28;20034;-36
2021/09/27 05:12:34;;;;;;;9.40;8.50;;;17.10;99.90;;;;;;5112026;28;20027;-38
2021/09/27 05:15:28;;;;;;;9.98;8.38;;;17.10;99.90;;;;;;5111823;28;20031;-40
2021/09/27 05:17:55;;;;;;;9.50;8.50;;;17.10;99.90;;;;;;5019498;28;20037;-36
2021/09/27 05:20:36;;;;;;;8.65;7.85;;;17.10;99.90;;;;;;5099014;28;20043;-37
2021/09/27 05:23:33;;;;;;;11.30;8.25;;;17.00;99.90;;;;;;5109815;28;20434;-38
2021/09/27 05:26:34;;;;;;;10.55;8.55;;;17.00;99.90;;;;;;5110056;28;20375;-38
2021/09/27 05:29:14;;;;;;;9.60;8.60;;;17.00;99.90;;;;;;5086654;28;20016;-36
2021/09/27 05:32:12;;;;;;;10.65;8.82;;;17.10;99.90;;;;;;5101666;28;20015;-38
2021/09/27 05:34:59;;;;;;;9.88;8.70;;;17.10;99.90;;;;;;5109367;28;20054;-39
2021/09/27 05:37:33;;;;;;;10.02;9.02;;;17.00;99.90;;;;;;5089382;28;20073;-38
2021/09/27 05:40:33;;;;;;;9.55;8.48;;;17.00;99.90;;;;;;5109955;28;20115;-35
2021/09/27 05:43:22;;;;;;;9.73;8.73;;;17.00;99.90;;;;;;5079187;28;20032;-39
2021/09/27 05:45:53;;;;;;;9.85;8.85;;;17.00;99.90;;;;;;5109295;28;20269;-37
2021/09/27 05:48:35;;;;;;;10.45;8.80;;;17.00;99.90;;;;;;5108653;28;20126;-38
2021/09/27 05:51:26;;;;;;;9.85;8.85;;;17.00;99.90;;;;;;5109737;28;20011;-40
2021/09/27 05:54:16;;;;;;;9.82;8.82;;;16.90;99.90;;;;;;5110544;28;20019;-39
2021/09/27 05:56:51;;;;;;;9.57;8.57;;;17.00;99.90;;;;;;5107036;28;20046;-38
2021/09/27 05:59:31;;;;;;;10.63;9.00;;;17.00;99.90;;;;;;5067610;28;20036;-40
2021/09/27 06:02:09;;;;;;;9.80;8.80;;;17.00;99.90;;;;;;5101246;28;20023;-36
2021/09/27 06:04:57;;;;;;;10.40;9.30;;;17.00;99.90;;;;;;5069620;28;20032;-40
2021/09/27 06:07:33;;;;;;;10.68;8.50;;;17.00;99.90;;;;;;5104879;28;20106;-39
2021/09/27 06:10:09;;;;;;;12.10;9.20;;;17.10;99.90;;;;;;5109785;28;20043;-36
2021/09/27 06:12:45;;;;;;;10.13;8.57;;;17.10;99.90;;;;;;5105684;28;20040;-39
2021/09/27 06:15:14;;;;;;;9.70;8.65;;;17.20;99.90;;;;;;5089737;28;20050;-37
2021/09/27 06:18:11;;;;;;;10.93;8.70;;;17.20;99.90;;;;;;5107048;28;20034;-41
2021/09/27 06:20:49;;;;;;;9.43;8.43;;;17.30;99.90;;;;;;5109327;28;20040;-38
2021/09/27 06:23:43;;;;;;;10.07;9.05;;;17.30;99.90;;;;;;5108351;28;20140;-39
2021/09/27 06:26:13;;;;;;;10.68;9.43;;;17.30;99.90;;;;;;5110674;28;20125;-41
2021/09/27 06:28:58;;;;;;;10.77;9.65;;;17.30;99.90;;;;;;5110405;28;20022;-40
2021/09/27 06:31:48;;;;;;;12.68;10.00;;;17.30;99.90;;;;;;5109819;28;20043;-39
2021/09/27 06:34:23;;;;;;;11.32;10.15;;;17.40;99.90;;;;;;5108778;28;20015;-40
2021/09/27 06:36:49;;;;;;;10.88;9.77;;;17.40;99.90;;;;;;5110291;28;20494;-44
2021/09/27 06:39:20;;;;;;;12.25;10.75;;;17.40;99.90;;;;;;5110451;28;20114;-42
2021/09/27 06:41:49;;;;;;;13.10;10.27;;;17.40;99.90;;;;;;5109306;28;20020;-41
2021/09/27 06:44:16;;;;;;;12.02;10.73;;;17.40;99.90;;;;;;5110051;28;20160;-38
2021/09/27 06:46:42;;;;;;;10.73;9.63;;;17.40;99.90;;;;;;5110007;28;20020;-41
2021/09/27 06:49:09;;;;;;;12.43;10.57;;;17.50;99.90;;;;;;5109807;28;20028;-43
2021/09/27 06:51:41;;;;;;;12.68;9.77;;;17.50;99.90;;;;;;5110147;28;20031;-41
2021/09/27 06:54:07;;;;;;;10.98;9.55;;;17.60;99.90;;;;;;5108440;28;20026;-42
2021/09/27 06:56:33;;;;;;;10.60;9.50;;;17.60;99.90;;;;;;5071557;28;20397;-40
2021/09/27 06:58:59;;;;;;;10.15;9.15;;;17.60;99.90;;;;;;5103888;28;20538;-38
2021/09/27 07:01:25;;;;;;;10.88;9.75;;;17.70;99.90;;;;;;5109904;28;20035;-41
2021/09/27 07:03:50;;;;;;;11.98;10.20;;;17.80;99.90;;;;;;5104304;28;20012;-42
2021/09/27 07:06:16;;;;;;;11.25;10.15;;;17.80;99.90;;;;;;5108000;28;20028;-41
2021/09/27 07:08:41;;;;;;;11.25;10.05;;;17.90;99.90;;;;;;5109416;28;20455;-41
2021/09/27 07:11:07;;;;;;;13.05;10.40;;;17.90;99.90;;;;;;5109595;28;20027;-43
2021/09/27 07:13:33;;;;;;;11.68;9.77;;;17.90;99.90;;;;;;5109620;28;20568;-41
2021/09/27 07:15:59;;;;;;;9.95;8.95;;;18.00;99.90;;;;;;5109336;28;20028;-43
2021/09/27 07:18:25;;;;;;;13.73;11.43;;;18.00;99.90;;;;;;5109517;28;20455;-41
2021/09/27 07:20:51;;;;;;;11.20;10.02;;;18.10;99.90;;;;;;5109506;28;20065;-42
2021/09/27 07:23:17;;;;;;;11.45;9.50;;;18.20;99.90;;;;;;5108753;28;20306;-43
2021/09/27 07:25:42;;;;;;;10.95;9.90;;;18.30;99.90;;;;;;5109860;28;20016;-43
2021/09/27 07:28:08;;;;;;;10.70;9.70;;;18.30;99.90;;;;;;5109675;28;20024;-40
2021/09/27 07:30:35;;;;;;;10.65;9.55;;;18.30;99.90;;;;;;5108433;28;20035;-35
2021/09/27 07:33:00;;;;;;;9.40;8.52;;;18.40;99.90;;;;;;5109532;28;20094;-39
2021/09/27 07:35:29;;;;;;;9.63;8.63;;;18.50;99.90;;;;;;5091864;28;20131;-34
2021/09/27 07:37:56;;;;;;;10.10;9.10;;;18.60;99.90;;;;;;5109764;28;20027;-39
2021/09/27 07:40:25;;;;;;;11.27;9.88;;;18.60;99.90;;;;;;5109000;28;20076;-39
2021/09/27 07:42:52;;;;;;;10.88;9.77;;;18.70;99.90;;;;;;5109722;28;20067;-39
2021/09/27 07:45:19;;;;;;;11.88;9.75;;;18.70;99.90;;;;;;5107828;28;20102;-36
2021/09/27 07:47:45;;;;;;;14.45;10.23;;;18.80;99.90;;;;;;5113267;28;20042;-41
2021/09/27 07:50:11;;;;;;;12.27;9.25;;;18.80;99.90;;;;;;5113848;28;20463;-38
2021/09/27 07:52:37;;;;;;;16.50;11.00;;;18.80;99.90;;;;;;5112492;28;20035;-40
2021/09/27 07:55:05;;;;;;;13.27;9.77;;;18.80;99.90;;;;;;5113711;28;20020;-39
2021/09/27 07:57:31;;;;;;;13.45;10.75;;;18.80;99.90;;;;;;5094107;28;20044;-37
2021/09/27 07:59:56;;;;;;;11.93;10.75;;;18.80;99.90;;;;;;5087908;28;20106;-40
2021/09/27 08:02:28;;;;;;;12.38;10.50;;;18.90;99.90;;;;;;5112429;28;20110;-39
2021/09/27 08:04:53;;;;;;;11.20;10.00;;;18.90;99.90;;;;;;5112966;28;20016;-38
2021/09/27 08:07:19;;;;;;;10.85;9.75;;;19.00;99.90;;;;;;5112772;28;20031;-39
2021/09/27 08:09:45;;;;;;;10.10;9.10;;;19.00;99.90;;;;;;5110869;28;20027;-39
2021/09/27 08:12:11;;;;;;;11.82;10.13;;;19.00;99.90;;;;;;5112442;28;20046;-41
2021/09/27 08:14:43;;;;;;;11.25;10.18;;;19.00;99.90;;;;;;5111955;28;20024;-41
2021/09/27 08:17:08;;;;;;;11.68;9.73;;;19.10;99.90;;;;;;5105610;28;20035;-40
2021/09/27 08:19:37;;;;;;;11.50;10.13;;;19.20;99.90;;;;;;5112296;28;20048;-37
2021/09/27 08:22:04;;;;;;;12.73;10.27;;;19.20;99.90;;;;;;5105773;28;20031;-37
2021/09/27 08:24:29;;;;;;;15.25;11.90;;;19.20;99.90;;;;;;5101134;28;20088;-40
2021/09/27 08:26:55;;;;;;;13.30;10.98;;;19.30;99.90;;;;;;5106111;28;20557;-41
2021/09/27 08:29:20;;;;;;;12.18;10.75;;;19.30;99.90;;;;;;5102446;28;20028;-41
2021/09/27 08:31:46;;;;;;;11.88;9.65;;;19.40;99.90;;;;;;5106977;28;20027;-40
2021/09/27 08:34:11;;;;;;;10.23;9.23;;;19.50;99.90;;;;;;5112219;28;20023;-40
2021/09/27 08:36:37;;;;;;;10.85;9.77;;;19.60;99.90;;;;;;5111311;28;20054;-40
2021/09/27 08:39:04;;;;;;;11.55;9.70;;;19.70;99.90;;;;;;5112311;28;20545;-39
2021/09/27 08:41:45;;;;;;;12.18;9.57;;;19.70;99.90;;;;;;5111456;28;20412;-42
2021/09/27 08:44:36;;;;;;;12.35;9.57;;;19.80;99.90;;;;;;5112256;28;20380;-39
2021/09/27 08:47:06;;;;;;;10.35;9.30;;;19.80;99.90;;;;;;5111454;28;20028;-41
2021/09/27 08:49:59;;;;;;;10.25;8.23;;;19.80;99.90;;;;;;5111581;28;20055;-42
2021/09/27 08:52:27;;;;;;;12.48;10.05;;;19.90;99.90;;;;;;5112129;28;20024;-40
2021/09/27 08:54:54;;;;;;;10.73;9.63;;;19.90;99.90;;;;;;5111575;28;20104;-41
2021/09/27 08:57:49;;;;;;;9.27;8.38;;;20.00;99.90;;;;;;5109742;28;20046;-39
2021/09/27 09:00:31;;;;;;;11.25;8.73;;;20.10;99.90;;;;;;5112163;28;20514;-39
2021/09/27 09:03:03;;;;;;;10.23;8.93;;;20.10;99.90;;;;;;5105057;28;20547;-40
2021/09/27 09:05:48;;;;;;;11.38;8.57;;;20.20;99.90;;;;;;5111662;28;20034;-40
2021/09/27 09:08:22;;;;;;;9.40;8.40;;;20.30;99.90;;;;;;5111481;28;20086;-39
2021/09/27 09:11:09;;;;;;;14.82;11.90;;;20.30;99.90;;;;;;5084835;28;20057;-39
2021/09/27 09:13:49;;;;;;;11.25;9.63;;;20.30;99.90;;;;;;5110582;28;20020;-40
2021/09/27 09:16:18;;;;;;;9.10;8.20;;;20.20;99.90;;;;;;5111011;28;20118;-39
2021/09/27 09:18:50;;;;;;;10.25;8.82;;;20.20;99.90;;;;;;5111787;28;20466;-38
2021/09/27 09:21:44;;;;;;;9.90;8.85;;;20.30;99.90;;;;;;5111871;28;20034;-42
2021/09/27 09:24:15;;;;;;;9.88;8.57;;;20.30;99.90;;;;;;5110530;28;20024;-42
2021/09/27 09:26:48;;;;;;;10.35;8.57;;;20.30;99.90;;;;;;5111309;28;20434;-41
2021/09/27 09:29:21;;;;;;;10.23;9.23;;;20.30;99.90;;;;;;5110000;28;20039;-43
2021/09/27 09:31:52;;;;;;;10.13;9.13;;;20.40;99.90;;;;;;5112218;28;20020;-44
2021/09/27 09:34:17;;;;;;;9.00;8.20;;;20.40;99.90;;;;;;5110337;28;20027;-36
2021/09/27 09:36:43;;;;;;;8.90;8.00;;;20.40;99.90;;;;;;5111236;28;20383;-39
2021/09/27 09:39:22;;;;;;;9.30;8.40;;;20.50;99.90;;;;;;5111012;28;20378;-38
2021/09/27 09:41:58;;;;;;;8.60;7.72;;;20.40;99.90;;;;;;5071211;28;20043;-40
2021/09/27 09:44:32;;;;;;;10.30;9.20;;;20.50;99.90;;;;;;5102394;28;20019;-40
2021/09/27 09:47:05;;;;;;;10.15;9.05;;;20.50;99.90;;;;;;5070977;28;20391;-37
2021/09/27 09:49:49;;;;;;;;;;;20.60;99.90;;;;;;5102135;28;20023;-36
2021/09/27 09:52:27;;;;;;;10.20;9.10;;;20.70;99.90;;;;;;5069391;28;19908;-37
2021/09/27 09:54:57;;;;;;;9.48;7.70;;;20.90;99.90;;;;;;5103426;28;20032;-40
2021/09/27 09:57:33;;;;;;;7.88;7.10;;;21.00;99.90;;;;;;5110045;28;20479;-39
2021/09/27 10:00:36;;;;;;;10.18;7.13;;;21.00;99.90;;;;;;5110687;28;20027;-38
2021/09/27 10:03:02;;;;;;;8.02;6.57;;;21.10;99.90;;;;;;5069349;28;20037;-41
2021/09/27 10:05:35;;;;;;;8.27;7.35;;;21.10;99.90;;;;;;5108396;28;20076;-41
2021/09/27 10:08:06;;;;;;;9.38;6.53;;;21.20;99.90;;;;;;5110697;28;20023;-41
2021/09/27 10:10:42;;;;;;;7.82;6.32;;;21.20;99.90;;;;;;5108963;28;20026;-41
2021/09/27 10:13:27;;;;;;;7.00;6.30;;;21.30;99.90;;;;;;5107215;28;20490;-40
2021/09/27 10:15:54;;;;;;;10.07;6.82;;;21.30;99.90;;;;;;5110447;28;20387;-40
2021/09/27 10:18:24;;;;;;;7.00;6.28;;;21.30;99.90;;;;;;5084304;28;20023;-42
2021/09/27 10:21:17;;;;;;;7.13;6.22;;;21.30;99.90;;;;;;5095414;28;20044;-41
2021/09/27 10:23:44;;;;;;;;;;;21.30;99.90;;;;;;5079167;28;20021;-40
2021/09/27 10:26:19;;;;;;;6.88;5.90;;;21.20;99.90;;;;;;5087827;28;19918;-36
2021/09/27 10:28:47;;;;;;;8.93;6.30;;;21.10;99.90;;;;;;5074289;28;20024;-38
2021/09/27 10:31:15;;;;;;;5.60;4.95;;;21.00;99.90;;;;;;5107054;28;20080;-42
2021/09/27 10:34:03;;;;;;;8.48;5.07;;;20.90;99.90;;;;;;5109572;28;20080;-40
2021/09/27 10:36:38;;;;;;;6.57;4.93;;;20.90;99.90;;;;;;5109161;28;20036;-40
2021/09/27 10:39:09;;;;;;;9.15;5.63;;;20.90;99.90;;;;;;5069424;28;20016;-40
2021/09/27 10:41:56;;;;;;;4.50;4.10;;;20.90;99.90;;;;;;5104144;28;20077;-35
2021/09/27 10:44:45;;;;;;;5.97;4.57;;;20.90;99.90;;;;;;5069244;28;20472;-40
2021/09/27 10:47:14;;;;;;;6.75;4.32;;;20.80;99.90;;;;;;5102997;28;20026;-42
2021/09/27 10:49:50;;;;;;;6.53;4.55;;;20.80;99.90;;;;;;5109606;28;20034;-41
2021/09/27 10:52:16;;;;;;;6.82;3.97;;;20.70;99.90;;;;;;5107351;28;20031;-39
2021/09/27 10:54:56;;;;;;;5.70;4.00;;;20.70;99.90;;;;;;5109405;28;20400;-42
2021/09/27 10:57:25;;;;;;;6.40;3.75;;;20.70;99.90;;;;;;5107459;28;20035;-39
2021/09/27 11:00:31;;;;;;;4.30;3.75;;;20.70;99.90;;;;;;5109982;28;20030;-41
2021/09/27 11:03:05;;;;;;;3.47;3.17;;;20.80;99.90;;;;;;5106102;28;20467;-37
2021/09/27 11:05:57;;;;;;;4.70;3.60;;;20.80;99.90;;;;;;5110083;28;20024;-37
2021/09/27 11:08:59;;;;;;;5.68;3.70;;;20.90;99.90;;;;;;5088337;28;20022;-38
2021/09/27 11:11:30;;;;;;;5.00;3.35;;;21.00;99.90;;;;;;5107860;28;20100;-40
2021/09/27 11:13:58;;;;;;;5.05;4.03;;;21.00;99.90;;;;;;5108534;28;20055;-39
2021/09/27 11:16:33;;;;;;;3.97;3.53;;;21.10;99.90;;;;;;5108459;28;20047;-40
2021/09/27 11:19:32;;;;;;;5.38;3.80;;;21.10;99.90;;;;;;5110064;28;20024;-42
2021/09/27 11:22:13;;;;;;;5.63;4.10;;;21.20;99.90;;;;;;5112486;28;20015;-39
2021/09/27 11:24:44;;;;;;;7.90;4.57;;;21.20;99.90;;;;;;5113521;28;20331;-38
2021/09/27 11:27:16;;;;;;;5.20;3.40;;;21.20;99.90;;;;;;5114282;28;20031;-42
2021/09/27 11:29:49;;;;;;;6.20;4.00;;;21.20;99.90;;;;;;5113465;28;20035;-39
2021/09/27 11:32:30;;;;;;;4.97;3.78;;;21.20;99.90;;;;;;5113479;28;20027;-41
2021/09/27 11:35:02;;;;;;;4.25;3.30;;;21.20;99.90;;;;;;5114430;28;20036;-41
2021/09/27 11:37:30;;;;;;;5.07;3.40;;;21.30;99.90;;;;;;5112741;28;20447;-41
2021/09/27 11:40:11;;;;;;;6.03;3.90;;;21.40;99.90;;;;;;5113752;28;20027;-40
2021/09/27 11:42:43;;;;;;;4.38;3.60;;;21.50;99.90;;;;;;5111235;28;20471;-39
2021/09/27 11:45:14;;;;;;;3.45;3.03;;;21.60;99.90;;;;;;5114565;28;20046;-41
2021/09/27 11:47:46;;;;;;;4.82;3.00;;;21.70;99.90;;;;;;5112228;28;20611;-35
2021/09/27 11:50:35;;;;;;;3.53;3.08;;;21.80;99.90;;;;;;5111960;28;20016;-38
2021/09/27 11:53:16;;;;;;;3.10;2.80;;;21.90;99.90;;;;;;5083527;28;20526;-36
2021/09/27 11:56:06;;;;;;;4.18;3.10;;;21.90;99.90;;;;;;5089056;28;20045;-39
2021/09/27 11:58:44;;;;;;;4.22;3.00;;;22.00;99.90;;;;;;5098930;28;20439;-39
2021/09/27 12:01:38;;;;;;;4.60;3.10;;;22.00;99.90;;;;;;5113718;28;20032;-39
2021/09/27 12:04:15;;;;;;;4.07;2.80;;;22.00;99.90;;;;;;5112023;28;20031;-36
2021/09/27 12:06:43;;;;;;;3.67;2.47;;;22.00;99.90;;;;;;5072550;28;20191;-39
2021/09/27 12:09:33;;;;;;;2.95;2.55;;;21.90;99.90;;;;;;5103900;28;20066;-40
2021/09/27 12:12:03;;;;;;;4.13;2.65;;;21.90;99.90;;;;;;5101218;28;20074;-39
2021/09/27 12:14:44;;;;;;;3.58;2.30;;;21.90;99.90;;;;;;5112813;28;20101;-40
2021/09/27 12:17:15;;;;;;;2.90;2.40;;;21.80;99.90;;;;;;5113249;28;20035;-40
2021/09/27 12:19:49;;;;;;;3.60;1.85;;;21.80;99.90;;;;;;5112569;28;20122;-39
2021/09/27 12:22:26;;;;;;;4.15;2.42;;;21.70;99.90;;;;;;5112932;28;20110;-37
2021/09/27 12:24:52;;;;;;;3.92;2.10;;;21.80;99.90;;;;;;5113018;28;20481;-39
2021/09/27 12:27:27;;;;;;;2.55;1.95;;;21.80;99.90;;;;;;5112779;28;20020;-40
2021/09/27 12:30:09;;;;;;;6.63;2.45;;;21.80;99.90;;;;;;5112567;28;20077;-40
2021/09/27 12:32:48;;;;;;;2.90;2.07;;;21.80;99.90;;;;;;5071366;28;20503;-39
2021/09/27 12:35:41;;;;;;;2.47;1.95;;;21.80;99.90;;;;;;5107723;28;20611;-42
2021/09/27 12:38:07;;;;;;;2.58;1.95;;;21.90;99.90;;;;;;5078188;28;20016;-39
2021/09/27 12:40:45;;;;;;;2.15;1.85;;;22.00;99.90;;;;;;5108740;28;20365;-38
2021/09/27 12:43:14;;;;;;;3.15;1.83;;;22.10;99.90;;;;;;5112830;28;20023;-37
2021/09/27 12:45:46;;;;;;;3.75;2.05;;;22.20;99.90;;;;;;5112482;28;20382;-39
2021/09/27 12:48:25;;;;;;;2.72;2.00;;;22.30;99.60;;;;;;5112323;28;20088;-39
2021/09/27 12:50:59;;;;;;;3.83;1.90;;;22.30;99.70;;;;;;5112134;28;20098;-39
2021/09/27 12:53:42;;;;;;;3.65;2.33;;;22.30;99.40;;;;;;5110744;28;20474;-40
2021/09/27 12:56:09;;;;;;;2.20;2.00;;;22.40;99.00;;;;;;5111286;28;20035;-38
2021/09/27 12:58:40;;;;;;;2.90;2.15;;;22.30;99.00;;;;;;5111788;28;20466;-40
2021/09/27 13:01:12;;;;;;;1.92;1.73;;;22.30;99.10;;;;;;5111973;28;20028;-40
2021/09/27 13:03:41;;;;;;;;;;;22.40;99.40;;;;;;5080979;28;20088;-38
2021/09/27 13:06:27;;;;;;;2.90;1.80;;;22.40;99.50;;;;;;5105234;28;19915;-38
2021/09/27 13:09:11;;;;;;;3.78;1.90;;;22.30;99.50;;;;;;5071156;28;20488;-39
2021/09/27 13:11:50;;;;;;;3.10;2.42;;;22.20;99.30;;;;;;5108936;28;20028;-38
2021/09/27 13:14:29;;;;;;;3.42;2.30;;;22.20;99.50;;;;;;5111144;28;20110;-39
2021/09/27 13:17:10;;;;;;;3.85;2.10;;;22.10;99.50;;;;;;5111530;28;20036;-36
2021/09/27 13:19:46;;;;;;;6.95;2.70;;;22.10;99.90;;;;;;5111360;28;20043;-39
2021/09/27 13:22:19;;;;;;;5.25;2.40;;;22.00;99.90;;;;;;5109096;28;20529;-37
2021/09/27 13:24:45;;;;;;;6.47;2.70;;;21.90;99.90;;;;;;5112004;28;20050;-39
2021/09/27 13:27:32;;;;;;;3.60;2.33;;;21.80;99.90;;;;;;5111545;28;20448;-37
2021/09/27 13:30:20;;;;;;;3.33;2.28;;;21.60;99.90;;;;;;5111438;28;20111;-38
2021/09/27 13:32:56;;;;;;;4.47;2.10;;;21.60;99.90;;;;;;5106391;28;20035;-38
2021/09/27 13:35:38;;;;;;;2.38;1.98;;;21.50;99.90;;;;;;5110096;28;20053;-38
2021/09/27 13:38:06;;;;;;;3.22;1.88;;;21.50;99.90;;;;;;5107951;28;20588;-34